sensor_id;sensor_type;location;lat;lon;timestamp;P1;durP1;ratioP1;P2;durP2;ratioP2
22388;SDS011;11362;48.102;11.620;2024-01-30T00:00:11;2.77;;;2.50;;
22388;SDS011;11362;48.102;11.620;2024-01-30T00:02:36;2.83;;;2.60;;
22388;SDS011;11362;48.102;11.620;2024-01-30T00:05:01;2.73;;;2.50;;
22388;SDS011;11362;48.102;11.620;2024-01-30T00:07:27;2.63;;;2.40;;
22388;SDS011;11362;48.102;11.620;2024-01-30T00:09:52;3.10;;;2.80;;
22388;SDS011;11362;48.102;11.620;2024-01-30T00:12:17;2.53;;;2.23;;
22388;SDS011;11362;48.102;11.620;2024-01-30T00:14:43;2.90;;;2.60;;
22388;SDS011;11362;48.102;11.620;2024-01-30T00:17:08;3.10;;;2.50;;
22388;SDS011;11362;48.102;11.620;2024-01-30T00:19:33;6.03;;;2.67;;
22388;SDS011;11362;48.102;11.620;2024-01-30T00:21:59;3.73;;;2.80;;
22388;SDS011;11362;48.102;11.620;2024-01-30T00:24:24;2.40;;;2.20;;
22388;SDS011;11362;48.102;11.620;2024-01-30T00:26:49;2.30;;;2.13;;
22388;SDS011;11362;48.102;11.620;2024-01-30T00:29:14;2.60;;;2.40;;
22388;SDS011;11362;48.102;11.620;2024-01-30T00:31:40;2.90;;;2.70;;
22388;SDS011;11362;48.102;11.620;2024-01-30T00:34:05;2.63;;;2.43;;
22388;SDS011;11362;48.102;11.620;2024-01-30T00:36:30;3.73;;;2.57;;
22388;SDS011;11362;48.102;11.620;2024-01-30T00:38:55;2.97;;;2.40;;
22388;SDS011;11362;48.102;11.620;2024-01-30T00:41:21;3.37;;;2.27;;
22388;SDS011;11362;48.102;11.620;2024-01-30T00:43:46;2.70;;;2.50;;
22388;SDS011;11362;48.102;11.620;2024-01-30T00:46:11;2.63;;;2.43;;
22388;SDS011;11362;48.102;11.620;2024-01-30T00:48:37;2.60;;;2.40;;
22388;SDS011;11362;48.102;11.620;2024-01-30T00:51:02;3.37;;;2.50;;
22388;SDS011;11362;48.102;11.620;2024-01-30T00:53:27;3.10;;;2.67;;
22388;SDS011;11362;48.102;11.620;2024-01-30T00:55:52;3.43;;;2.57;;
22388;SDS011;11362;48.102;11.620;2024-01-30T00:58:18;3.97;;;2.30;;
22388;SDS011;11362;48.102;11.620;2024-01-30T01:00:43;2.37;;;2.23;;
22388;SDS011;11362;48.102;11.620;2024-01-30T01:03:08;2.50;;;2.30;;
22388;SDS011;11362;48.102;11.620;2024-01-30T01:05:34;3.10;;;2.67;;
22388;SDS011;11362;48.102;11.620;2024-01-30T01:07:59;4.33;;;2.30;;
22388;SDS011;11362;48.102;11.620;2024-01-30T01:10:24;2.87;;;2.13;;
22388;SDS011;11362;48.102;11.620;2024-01-30T01:12:50;3.00;;;2.50;;
22388;SDS011;11362;48.102;11.620;2024-01-30T01:15:15;2.53;;;2.33;;
22388;SDS011;11362;48.102;11.620;2024-01-30T01:17:41;3.10;;;2.80;;
22388;SDS011;11362;48.102;11.620;2024-01-30T01:20:06;4.27;;;2.20;;
22388;SDS011;11362;48.102;11.620;2024-01-30T01:22:32;3.77;;;2.37;;
22388;SDS011;11362;48.102;11.620;2024-01-30T01:24:58;2.20;;;1.80;;
22388;SDS011;11362;48.102;11.620;2024-01-30T01:27:24;2.27;;;2.10;;
22388;SDS011;11362;48.102;11.620;2024-01-30T01:29:50;3.00;;;2.73;;
22388;SDS011;11362;48.102;11.620;2024-01-30T01:32:16;2.50;;;2.40;;
22388;SDS011;11362;48.102;11.620;2024-01-30T01:34:41;2.27;;;2.10;;
22388;SDS011;11362;48.102;11.620;2024-01-30T01:37:06;2.90;;;2.30;;
22388;SDS011;11362;48.102;11.620;2024-01-30T01:39:32;2.93;;;2.43;;
22388;SDS011;11362;48.102;11.620;2024-01-30T01:41:57;2.70;;;2.50;;
22388;SDS011;11362;48.102;11.620;2024-01-30T01:44:22;2.57;;;2.47;;
22388;SDS011;11362;48.102;11.620;2024-01-30T01:46:47;4.30;;;2.20;;
22388;SDS011;11362;48.102;11.620;2024-01-30T01:49:13;3.30;;;2.60;;
22388;SDS011;11362;48.102;11.620;2024-01-30T01:51:39;2.50;;;2.30;;
22388;SDS011;11362;48.102;11.620;2024-01-30T01:54:06;2.30;;;2.20;;
22388;SDS011;11362;48.102;11.620;2024-01-30T01:56:32;3.47;;;2.40;;
22388;SDS011;11362;48.102;11.620;2024-01-30T01:59:05;4.73;;;2.03;;
22388;SDS011;11362;48.102;11.620;2024-01-30T02:01:32;2.37;;;2.17;;
22388;SDS011;11362;48.102;11.620;2024-01-30T02:03:58;2.83;;;2.63;;
22388;SDS011;11362;48.102;11.620;2024-01-30T02:06:24;2.37;;;2.17;;
22388;SDS011;11362;48.102;11.620;2024-01-30T02:08:49;2.00;;;1.90;;
22388;SDS011;11362;48.102;11.620;2024-01-30T02:11:15;3.13;;;2.60;;
22388;SDS011;11362;48.102;11.620;2024-01-30T02:13:40;2.30;;;2.10;;
22388;SDS011;11362;48.102;11.620;2024-01-30T02:16:06;1.80;;;1.70;;
22388;SDS011;11362;48.102;11.620;2024-01-30T02:18:31;2.70;;;2.50;;
22388;SDS011;11362;48.102;11.620;2024-01-30T02:20:57;2.90;;;2.27;;
22388;SDS011;11362;48.102;11.620;2024-01-30T02:23:24;4.13;;;2.80;;
22388;SDS011;11362;48.102;11.620;2024-01-30T02:25:51;2.40;;;2.20;;
22388;SDS011;11362;48.102;11.620;2024-01-30T02:28:16;2.40;;;2.20;;
22388;SDS011;11362;48.102;11.620;2024-01-30T02:30:44;2.40;;;2.20;;
22388;SDS011;11362;48.102;11.620;2024-01-30T02:33:10;3.17;;;2.20;;
22388;SDS011;11362;48.102;11.620;2024-01-30T02:35:35;2.57;;;2.37;;
22388;SDS011;11362;48.102;11.620;2024-01-30T02:38:00;2.90;;;2.70;;
22388;SDS011;11362;48.102;11.620;2024-01-30T02:40:26;2.47;;;2.03;;
22388;SDS011;11362;48.102;11.620;2024-01-30T02:42:51;2.60;;;2.13;;
22388;SDS011;11362;48.102;11.620;2024-01-30T02:45:16;3.27;;;2.67;;
22388;SDS011;11362;48.102;11.620;2024-01-30T02:47:42;2.50;;;2.30;;
22388;SDS011;11362;48.102;11.620;2024-01-30T02:50:07;6.03;;;2.47;;
22388;SDS011;11362;48.102;11.620;2024-01-30T02:52:33;3.23;;;1.97;;
22388;SDS011;11362;48.102;11.620;2024-01-30T02:54:58;2.57;;;2.37;;
22388;SDS011;11362;48.102;11.620;2024-01-30T02:57:24;4.70;;;2.50;;
22388;SDS011;11362;48.102;11.620;2024-01-30T02:59:49;2.60;;;1.97;;
22388;SDS011;11362;48.102;11.620;2024-01-30T03:02:14;3.47;;;2.87;;
22388;SDS011;11362;48.102;11.620;2024-01-30T03:04:43;2.53;;;2.07;;
22388;SDS011;11362;48.102;11.620;2024-01-30T03:07:09;3.60;;;2.33;;
22388;SDS011;11362;48.102;11.620;2024-01-30T03:09:34;5.73;;;2.47;;
22388;SDS011;11362;48.102;11.620;2024-01-30T03:12:00;2.60;;;2.40;;
22388;SDS011;11362;48.102;11.620;2024-01-30T03:14:25;5.77;;;2.60;;
22388;SDS011;11362;48.102;11.620;2024-01-30T03:16:50;2.97;;;2.17;;
22388;SDS011;11362;48.102;11.620;2024-01-30T03:19:15;3.77;;;2.30;;
22388;SDS011;11362;48.102;11.620;2024-01-30T03:21:41;3.60;;;2.43;;
22388;SDS011;11362;48.102;11.620;2024-01-30T03:24:06;4.13;;;2.57;;
22388;SDS011;11362;48.102;11.620;2024-01-30T03:26:31;2.83;;;2.07;;
22388;SDS011;11362;48.102;11.620;2024-01-30T03:28:57;3.60;;;2.27;;
22388;SDS011;11362;48.102;11.620;2024-01-30T03:31:22;2.50;;;2.30;;
22388;SDS011;11362;48.102;11.620;2024-01-30T03:33:47;2.87;;;2.47;;
22388;SDS011;11362;48.102;11.620;2024-01-30T03:36:14;5.13;;;2.37;;
22388;SDS011;11362;48.102;11.620;2024-01-30T03:38:40;2.67;;;1.90;;
22388;SDS011;11362;48.102;11.620;2024-01-30T03:41:07;4.03;;;2.27;;
22388;SDS011;11362;48.102;11.620;2024-01-30T03:43:34;2.23;;;1.97;;
22388;SDS011;11362;48.102;11.620;2024-01-30T03:46:00;2.13;;;1.90;;
22388;SDS011;11362;48.102;11.620;2024-01-30T03:48:27;2.47;;;2.27;;
22388;SDS011;11362;48.102;11.620;2024-01-30T03:50:52;4.07;;;2.40;;
22388;SDS011;11362;48.102;11.620;2024-01-30T03:53:18;2.63;;;2.00;;
22388;SDS011;11362;48.102;11.620;2024-01-30T03:55:43;5.47;;;1.80;;
22388;SDS011;11362;48.102;11.620;2024-01-30T03:58:09;3.00;;;1.90;;
22388;SDS011;11362;48.102;11.620;2024-01-30T04:00:34;2.90;;;2.20;;
22388;SDS011;11362;48.102;11.620;2024-01-30T04:03:00;2.77;;;2.10;;
22388;SDS011;11362;48.102;11.620;2024-01-30T04:05:25;3.07;;;2.43;;
22388;SDS011;11362;48.102;11.620;2024-01-30T04:07:51;2.37;;;2.00;;
22388;SDS011;11362;48.102;11.620;2024-01-30T04:10:16;2.47;;;2.13;;
22388;SDS011;11362;48.102;11.620;2024-01-30T04:12:41;2.57;;;1.93;;
22388;SDS011;11362;48.102;11.620;2024-01-30T04:15:07;4.63;;;2.33;;
22388;SDS011;11362;48.102;11.620;2024-01-30T04:17:33;1.90;;;1.80;;
22388;SDS011;11362;48.102;11.620;2024-01-30T04:19:58;3.47;;;1.93;;
22388;SDS011;11362;48.102;11.620;2024-01-30T04:22:24;1.63;;;1.53;;
22388;SDS011;11362;48.102;11.620;2024-01-30T04:24:50;2.30;;;2.10;;
22388;SDS011;11362;48.102;11.620;2024-01-30T04:27:15;2.33;;;1.60;;
22388;SDS011;11362;48.102;11.620;2024-01-30T04:29:41;3.07;;;2.20;;
22388;SDS011;11362;48.102;11.620;2024-01-30T04:32:06;4.87;;;1.83;;
22388;SDS011;11362;48.102;11.620;2024-01-30T04:34:32;2.37;;;2.17;;
22388;SDS011;11362;48.102;11.620;2024-01-30T04:36:58;2.33;;;2.13;;
22388;SDS011;11362;48.102;11.620;2024-01-30T04:39:23;1.87;;;1.77;;
22388;SDS011;11362;48.102;11.620;2024-01-30T04:41:49;2.83;;;2.23;;
22388;SDS011;11362;48.102;11.620;2024-01-30T04:44:14;1.73;;;1.63;;
22388;SDS011;11362;48.102;11.620;2024-01-30T04:46:40;1.83;;;1.73;;
22388;SDS011;11362;48.102;11.620;2024-01-30T04:49:05;2.03;;;1.90;;
22388;SDS011;11362;48.102;11.620;2024-01-30T04:51:31;2.50;;;1.80;;
22388;SDS011;11362;48.102;11.620;2024-01-30T04:53:56;2.10;;;1.60;;
22388;SDS011;11362;48.102;11.620;2024-01-30T04:56:22;2.13;;;1.63;;
22388;SDS011;11362;48.102;11.620;2024-01-30T04:58:47;1.70;;;1.60;;
22388;SDS011;11362;48.102;11.620;2024-01-30T05:01:16;1.73;;;1.63;;
22388;SDS011;11362;48.102;11.620;2024-01-30T05:03:42;1.90;;;1.80;;
22388;SDS011;11362;48.102;11.620;2024-01-30T05:06:08;1.80;;;1.70;;
22388;SDS011;11362;48.102;11.620;2024-01-30T05:08:33;1.57;;;1.47;;
22388;SDS011;11362;48.102;11.620;2024-01-30T05:11:02;2.07;;;1.80;;
22388;SDS011;11362;48.102;11.620;2024-01-30T05:13:29;1.93;;;1.83;;
22388;SDS011;11362;48.102;11.620;2024-01-30T05:15:55;2.03;;;1.93;;
22388;SDS011;11362;48.102;11.620;2024-01-30T05:18:21;1.63;;;1.47;;
22388;SDS011;11362;48.102;11.620;2024-01-30T05:20:46;1.63;;;1.53;;
22388;SDS011;11362;48.102;11.620;2024-01-30T05:23:12;1.50;;;1.40;;
22388;SDS011;11362;48.102;11.620;2024-01-30T05:25:37;1.47;;;1.37;;
22388;SDS011;11362;48.102;11.620;2024-01-30T05:28:03;1.97;;;1.70;;
22388;SDS011;11362;48.102;11.620;2024-01-30T05:30:28;1.50;;;1.40;;
22388;SDS011;11362;48.102;11.620;2024-01-30T05:32:54;1.50;;;1.40;;
22388;SDS011;11362;48.102;11.620;2024-01-30T05:35:19;1.60;;;1.50;;
22388;SDS011;11362;48.102;11.620;2024-01-30T05:37:45;1.73;;;1.47;;
22388;SDS011;11362;48.102;11.620;2024-01-30T05:40:10;1.63;;;1.50;;
22388;SDS011;11362;48.102;11.620;2024-01-30T05:42:36;2.03;;;1.70;;
22388;SDS011;11362;48.102;11.620;2024-01-30T05:45:01;2.33;;;1.67;;
22388;SDS011;11362;48.102;11.620;2024-01-30T05:47:27;1.50;;;1.40;;
22388;SDS011;11362;48.102;11.620;2024-01-30T05:49:52;1.60;;;1.50;;
22388;SDS011;11362;48.102;11.620;2024-01-30T05:52:18;1.73;;;1.63;;
22388;SDS011;11362;48.102;11.620;2024-01-30T05:54:43;1.40;;;1.40;;
22388;SDS011;11362;48.102;11.620;2024-01-30T05:57:08;1.40;;;1.37;;
22388;SDS011;11362;48.102;11.620;2024-01-30T05:59:34;1.63;;;1.53;;
22388;SDS011;11362;48.102;11.620;2024-01-30T06:01:59;1.53;;;1.43;;
22388;SDS011;11362;48.102;11.620;2024-01-30T06:04:24;1.50;;;1.40;;
22388;SDS011;11362;48.102;11.620;2024-01-30T06:06:49;1.50;;;1.40;;
22388;SDS011;11362;48.102;11.620;2024-01-30T06:09:15;2.73;;;1.60;;
22388;SDS011;11362;48.102;11.620;2024-01-30T06:11:40;1.80;;;1.50;;
22388;SDS011;11362;48.102;11.620;2024-01-30T06:14:05;3.63;;;1.90;;
22388;SDS011;11362;48.102;11.620;2024-01-30T06:16:31;3.33;;;1.43;;
22388;SDS011;11362;48.102;11.620;2024-01-30T06:18:56;5.07;;;2.23;;
22388;SDS011;11362;48.102;11.620;2024-01-30T06:21:22;12.07;;;2.33;;
22388;SDS011;11362;48.102;11.620;2024-01-30T06:23:48;6.23;;;2.00;;
22388;SDS011;11362;48.102;11.620;2024-01-30T06:26:14;6.77;;;1.60;;
22388;SDS011;11362;48.102;11.620;2024-01-30T06:28:39;4.70;;;1.90;;
22388;SDS011;11362;48.102;11.620;2024-01-30T06:31:05;6.90;;;1.80;;
22388;SDS011;11362;48.102;11.620;2024-01-30T06:33:31;5.83;;;2.07;;
22388;SDS011;11362;48.102;11.620;2024-01-30T06:35:56;4.83;;;2.10;;
22388;SDS011;11362;48.102;11.620;2024-01-30T06:38:22;4.70;;;1.70;;
22388;SDS011;11362;48.102;11.620;2024-01-30T06:40:47;4.90;;;2.27;;
22388;SDS011;11362;48.102;11.620;2024-01-30T06:43:13;6.20;;;1.80;;
22388;SDS011;11362;48.102;11.620;2024-01-30T06:45:39;4.50;;;1.93;;
22388;SDS011;11362;48.102;11.620;2024-01-30T06:48:04;4.03;;;1.80;;
22388;SDS011;11362;48.102;11.620;2024-01-30T06:50:30;5.23;;;2.10;;
22388;SDS011;11362;48.102;11.620;2024-01-30T06:52:55;6.07;;;1.90;;
22388;SDS011;11362;48.102;11.620;2024-01-30T06:55:21;3.40;;;1.67;;
22388;SDS011;11362;48.102;11.620;2024-01-30T06:57:46;4.27;;;1.47;;
22388;SDS011;11362;48.102;11.620;2024-01-30T07:00:12;3.50;;;2.10;;
22388;SDS011;11362;48.102;11.620;2024-01-30T07:02:38;2.93;;;1.57;;
22388;SDS011;11362;48.102;11.620;2024-01-30T07:05:03;8.80;;;2.07;;
22388;SDS011;11362;48.102;11.620;2024-01-30T07:07:29;7.10;;;1.93;;
22388;SDS011;11362;48.102;11.620;2024-01-30T07:09:55;8.20;;;2.40;;
22388;SDS011;11362;48.102;11.620;2024-01-30T07:12:20;13.37;;;1.87;;
22388;SDS011;11362;48.102;11.620;2024-01-30T07:14:46;3.97;;;2.00;;
22388;SDS011;11362;48.102;11.620;2024-01-30T07:17:11;9.57;;;2.50;;
22388;SDS011;11362;48.102;11.620;2024-01-30T07:19:36;8.97;;;2.77;;
22388;SDS011;11362;48.102;11.620;2024-01-30T07:22:02;10.73;;;2.87;;
22388;SDS011;11362;48.102;11.620;2024-01-30T07:24:27;11.10;;;3.20;;
22388;SDS011;11362;48.102;11.620;2024-01-30T07:26:53;7.50;;;2.10;;
22388;SDS011;11362;48.102;11.620;2024-01-30T07:29:18;11.80;;;2.73;;
22388;SDS011;11362;48.102;11.620;2024-01-30T07:31:44;8.73;;;2.70;;
22388;SDS011;11362;48.102;11.620;2024-01-30T07:34:10;12.63;;;2.60;;
22388;SDS011;11362;48.102;11.620;2024-01-30T07:36:35;6.97;;;2.57;;
22388;SDS011;11362;48.102;11.620;2024-01-30T07:39:01;7.07;;;2.40;;
22388;SDS011;11362;48.102;11.620;2024-01-30T07:41:26;9.67;;;2.73;;
22388;SDS011;11362;48.102;11.620;2024-01-30T07:43:52;11.57;;;3.00;;
22388;SDS011;11362;48.102;11.620;2024-01-30T07:46:17;9.30;;;3.17;;
22388;SDS011;11362;48.102;11.620;2024-01-30T07:48:42;10.10;;;2.77;;
22388;SDS011;11362;48.102;11.620;2024-01-30T07:51:08;6.83;;;2.50;;
22388;SDS011;11362;48.102;11.620;2024-01-30T07:53:33;16.37;;;3.03;;
22388;SDS011;11362;48.102;11.620;2024-01-30T07:55:59;12.60;;;2.67;;
22388;SDS011;11362;48.102;11.620;2024-01-30T07:58:24;10.77;;;2.50;;
22388;SDS011;11362;48.102;11.620;2024-01-30T08:00:50;7.57;;;2.50;;
22388;SDS011;11362;48.102;11.620;2024-01-30T08:03:15;13.00;;;2.63;;
22388;SDS011;11362;48.102;11.620;2024-01-30T08:05:41;8.27;;;2.10;;
22388;SDS011;11362;48.102;11.620;2024-01-30T08:08:06;12.67;;;2.50;;
22388;SDS011;11362;48.102;11.620;2024-01-30T08:10:32;9.00;;;2.87;;
22388;SDS011;11362;48.102;11.620;2024-01-30T08:12:57;4.30;;;3.17;;
22388;SDS011;11362;48.102;11.620;2024-01-30T08:15:23;9.23;;;3.10;;
22388;SDS011;11362;48.102;11.620;2024-01-30T08:17:48;8.97;;;2.93;;
22388;SDS011;11362;48.102;11.620;2024-01-30T08:20:14;4.87;;;2.40;;
22388;SDS011;11362;48.102;11.620;2024-01-30T08:22:39;6.80;;;2.63;;
22388;SDS011;11362;48.102;11.620;2024-01-30T08:25:05;6.50;;;2.17;;
22388;SDS011;11362;48.102;11.620;2024-01-30T08:27:31;19.43;;;3.27;;
22388;SDS011;11362;48.102;11.620;2024-01-30T08:29:56;8.00;;;2.47;;
22388;SDS011;11362;48.102;11.620;2024-01-30T08:32:22;5.47;;;2.47;;
22388;SDS011;11362;48.102;11.620;2024-01-30T08:34:48;5.90;;;2.33;;
22388;SDS011;11362;48.102;11.620;2024-01-30T08:37:13;13.30;;;2.43;;
22388;SDS011;11362;48.102;11.620;2024-01-30T08:39:39;5.63;;;2.77;;
22388;SDS011;11362;48.102;11.620;2024-01-30T08:42:04;6.30;;;2.43;;
22388;SDS011;11362;48.102;11.620;2024-01-30T08:44:30;6.77;;;2.37;;
22388;SDS011;11362;48.102;11.620;2024-01-30T08:46:55;9.07;;;2.63;;
22388;SDS011;11362;48.102;11.620;2024-01-30T08:49:21;6.87;;;2.47;;
22388;SDS011;11362;48.102;11.620;2024-01-30T08:51:46;10.33;;;2.23;;
22388;SDS011;11362;48.102;11.620;2024-01-30T08:54:12;6.27;;;1.90;;
22388;SDS011;11362;48.102;11.620;2024-01-30T08:56:37;4.40;;;2.40;;
22388;SDS011;11362;48.102;11.620;2024-01-30T08:59:02;3.47;;;2.47;;
22388;SDS011;11362;48.102;11.620;2024-01-30T09:01:27;6.13;;;2.07;;
22388;SDS011;11362;48.102;11.620;2024-01-30T09:03:53;5.33;;;2.07;;
22388;SDS011;11362;48.102;11.620;2024-01-30T09:06:18;4.20;;;2.00;;
22388;SDS011;11362;48.102;11.620;2024-01-30T09:08:43;4.83;;;2.57;;
22388;SDS011;11362;48.102;11.620;2024-01-30T09:11:12;2.83;;;2.23;;
22388;SDS011;11362;48.102;11.620;2024-01-30T09:13:38;4.27;;;2.30;;
22388;SDS011;11362;48.102;11.620;2024-01-30T09:16:04;3.27;;;1.90;;
22388;SDS011;11362;48.102;11.620;2024-01-30T09:18:30;5.93;;;2.47;;
22388;SDS011;11362;48.102;11.620;2024-01-30T09:20:55;6.83;;;2.60;;
22388;SDS011;11362;48.102;11.620;2024-01-30T09:23:21;12.40;;;3.37;;
22388;SDS011;11362;48.102;11.620;2024-01-30T09:25:46;9.80;;;3.20;;
22388;SDS011;11362;48.102;11.620;2024-01-30T09:28:11;8.93;;;3.27;;
22388;SDS011;11362;48.102;11.620;2024-01-30T09:30:37;7.40;;;2.43;;
22388;SDS011;11362;48.102;11.620;2024-01-30T09:33:02;8.47;;;2.53;;
22388;SDS011;11362;48.102;11.620;2024-01-30T09:35:27;7.13;;;2.67;;
22388;SDS011;11362;48.102;11.620;2024-01-30T09:37:53;8.03;;;2.40;;
22388;SDS011;11362;48.102;11.620;2024-01-30T09:40:18;6.03;;;2.50;;
22388;SDS011;11362;48.102;11.620;2024-01-30T09:42:43;5.63;;;2.20;;
22388;SDS011;11362;48.102;11.620;2024-01-30T09:45:14;4.33;;;2.30;;
22388;SDS011;11362;48.102;11.620;2024-01-30T09:47:41;4.80;;;2.13;;
22388;SDS011;11362;48.102;11.620;2024-01-30T09:50:07;3.90;;;2.33;;
22388;SDS011;11362;48.102;11.620;2024-01-30T09:52:33;6.00;;;2.03;;
22388;SDS011;11362;48.102;11.620;2024-01-30T09:54:59;5.00;;;1.77;;
22388;SDS011;11362;48.102;11.620;2024-01-30T09:57:25;3.37;;;2.10;;
22388;SDS011;11362;48.102;11.620;2024-01-30T09:59:50;5.87;;;2.00;;
22388;SDS011;11362;48.102;11.620;2024-01-30T10:02:16;6.60;;;2.00;;
22388;SDS011;11362;48.102;11.620;2024-01-30T10:04:43;6.37;;;2.43;;
22388;SDS011;11362;48.102;11.620;2024-01-30T10:07:09;7.27;;;2.43;;
22388;SDS011;11362;48.102;11.620;2024-01-30T10:09:36;5.97;;;2.20;;
22388;SDS011;11362;48.102;11.620;2024-01-30T10:12:02;4.90;;;2.07;;
22388;SDS011;11362;48.102;11.620;2024-01-30T10:14:28;6.03;;;2.47;;
22388;SDS011;11362;48.102;11.620;2024-01-30T10:16:54;2.93;;;2.20;;
22388;SDS011;11362;48.102;11.620;2024-01-30T10:19:20;4.27;;;1.77;;
22388;SDS011;11362;48.102;11.620;2024-01-30T10:21:46;8.43;;;2.03;;
22388;SDS011;11362;48.102;11.620;2024-01-30T10:24:12;8.63;;;2.30;;
22388;SDS011;11362;48.102;11.620;2024-01-30T10:26:37;5.53;;;2.27;;
22388;SDS011;11362;48.102;11.620;2024-01-30T10:29:03;7.50;;;2.03;;
22388;SDS011;11362;48.102;11.620;2024-01-30T10:31:29;10.07;;;2.30;;
22388;SDS011;11362;48.102;11.620;2024-01-30T10:33:55;13.17;;;2.90;;
22388;SDS011;11362;48.102;11.620;2024-01-30T10:36:20;5.40;;;2.17;;
22388;SDS011;11362;48.102;11.620;2024-01-30T10:38:53;4.67;;;2.23;;
22388;SDS011;11362;48.102;11.620;2024-01-30T10:41:26;6.00;;;2.47;;
22388;SDS011;11362;48.102;11.620;2024-01-30T10:43:58;3.43;;;1.70;;
22388;SDS011;11362;48.102;11.620;2024-01-30T10:46:33;5.87;;;2.10;;
22388;SDS011;11362;48.102;11.620;2024-01-30T10:49:00;6.33;;;1.70;;
22388;SDS011;11362;48.102;11.620;2024-01-30T10:51:26;4.27;;;1.83;;
22388;SDS011;11362;48.102;11.620;2024-01-30T10:53:52;7.20;;;2.03;;
22388;SDS011;11362;48.102;11.620;2024-01-30T10:56:17;11.83;;;2.93;;
22388;SDS011;11362;48.102;11.620;2024-01-30T10:58:45;12.20;;;2.23;;
22388;SDS011;11362;48.102;11.620;2024-01-30T11:01:11;9.07;;;2.50;;
22388;SDS011;11362;48.102;11.620;2024-01-30T11:03:38;18.37;;;3.23;;
22388;SDS011;11362;48.102;11.620;2024-01-30T11:06:03;16.50;;;2.73;;
22388;SDS011;11362;48.102;11.620;2024-01-30T11:08:31;11.87;;;2.93;;
22388;SDS011;11362;48.102;11.620;2024-01-30T11:10:57;6.77;;;1.93;;
22388;SDS011;11362;48.102;11.620;2024-01-30T11:13:27;9.37;;;2.17;;
22388;SDS011;11362;48.102;11.620;2024-01-30T11:15:53;18.00;;;2.80;;
22388;SDS011;11362;48.102;11.620;2024-01-30T11:18:22;12.63;;;2.97;;
22388;SDS011;11362;48.102;11.620;2024-01-30T11:20:48;10.53;;;2.70;;
22388;SDS011;11362;48.102;11.620;2024-01-30T11:23:13;10.90;;;3.07;;
22388;SDS011;11362;48.102;11.620;2024-01-30T11:25:39;14.00;;;3.27;;
22388;SDS011;11362;48.102;11.620;2024-01-30T11:28:04;7.27;;;2.77;;
22388;SDS011;11362;48.102;11.620;2024-01-30T11:30:30;7.17;;;2.30;;
22388;SDS011;11362;48.102;11.620;2024-01-30T11:33:10;8.23;;;3.00;;
22388;SDS011;11362;48.102;11.620;2024-01-30T11:35:44;6.57;;;2.60;;
22388;SDS011;11362;48.102;11.620;2024-01-30T11:38:10;8.00;;;2.63;;
22388;SDS011;11362;48.102;11.620;2024-01-30T11:40:38;8.97;;;3.13;;
22388;SDS011;11362;48.102;11.620;2024-01-30T11:43:05;47.37;;;35.03;;
22388;SDS011;11362;48.102;11.620;2024-01-30T11:45:31;49.47;;;38.77;;
22388;SDS011;11362;48.102;11.620;2024-01-30T11:47:57;46.87;;;31.00;;
22388;SDS011;11362;48.102;11.620;2024-01-30T11:50:24;29.53;;;20.27;;
22388;SDS011;11362;48.102;11.620;2024-01-30T11:52:50;32.47;;;18.87;;
22388;SDS011;11362;48.102;11.620;2024-01-30T11:55:16;34.20;;;18.57;;
22388;SDS011;11362;48.102;11.620;2024-01-30T11:57:42;25.50;;;18.23;;
22388;SDS011;11362;48.102;11.620;2024-01-30T12:00:40;33.80;;;18.80;;
22388;SDS011;11362;48.102;11.620;2024-01-30T12:02:59;25.57;;;16.23;;
22388;SDS011;11362;48.102;11.620;2024-01-30T12:05:25;21.60;;;17.27;;
22388;SDS011;11362;48.102;11.620;2024-01-30T12:07:50;23.60;;;16.67;;
22388;SDS011;11362;48.102;11.620;2024-01-30T12:10:16;22.20;;;15.40;;
22388;SDS011;11362;48.102;11.620;2024-01-30T12:12:44;21.77;;;15.03;;
22388;SDS011;11362;48.102;11.620;2024-01-30T12:15:11;28.30;;;14.43;;
22388;SDS011;11362;48.102;11.620;2024-01-30T12:17:38;20.67;;;14.10;;
22388;SDS011;11362;48.102;11.620;2024-01-30T12:20:07;19.87;;;14.30;;
22388;SDS011;11362;48.102;11.620;2024-01-30T12:25:08;22.33;;;13.17;;
22388;SDS011;11362;48.102;11.620;2024-01-30T12:27:34;18.23;;;12.40;;
22388;SDS011;11362;48.102;11.620;2024-01-30T12:30:00;20.53;;;12.00;;
22388;SDS011;11362;48.102;11.620;2024-01-30T12:32:26;19.27;;;11.50;;
22388;SDS011;11362;48.102;11.620;2024-01-30T12:34:54;15.37;;;11.03;;
22388;SDS011;11362;48.102;11.620;2024-01-30T12:37:20;16.67;;;10.33;;
22388;SDS011;11362;48.102;11.620;2024-01-30T12:39:46;13.30;;;10.13;;
22388;SDS011;11362;48.102;11.620;2024-01-30T12:42:11;16.63;;;10.17;;
22388;SDS011;11362;48.102;11.620;2024-01-30T12:44:37;14.07;;;8.83;;
22388;SDS011;11362;48.102;11.620;2024-01-30T12:47:03;14.57;;;9.03;;
22388;SDS011;11362;48.102;11.620;2024-01-30T12:49:29;12.60;;;8.80;;
22388;SDS011;11362;48.102;11.620;2024-01-30T12:51:54;14.50;;;8.97;;
22388;SDS011;11362;48.102;11.620;2024-01-30T12:54:20;13.03;;;8.10;;
22388;SDS011;11362;48.102;11.620;2024-01-30T12:56:45;15.43;;;7.67;;
22388;SDS011;11362;48.102;11.620;2024-01-30T12:59:11;9.70;;;7.57;;
22388;SDS011;11362;48.102;11.620;2024-01-30T13:01:36;12.80;;;7.37;;
22388;SDS011;11362;48.102;11.620;2024-01-30T13:04:02;11.27;;;7.63;;
22388;SDS011;11362;48.102;11.620;2024-01-30T13:06:27;10.30;;;6.97;;
22388;SDS011;11362;48.102;11.620;2024-01-30T13:08:53;7.40;;;6.60;;
22388;SDS011;11362;48.102;11.620;2024-01-30T13:11:18;13.03;;;6.63;;
22388;SDS011;11362;48.102;11.620;2024-01-30T13:13:44;9.70;;;6.17;;
22388;SDS011;11362;48.102;11.620;2024-01-30T13:16:09;10.97;;;6.80;;
22388;SDS011;11362;48.102;11.620;2024-01-30T13:18:35;10.83;;;6.27;;
22388;SDS011;11362;48.102;11.620;2024-01-30T13:21:01;7.07;;;5.67;;
22388;SDS011;11362;48.102;11.620;2024-01-30T13:23:26;7.40;;;5.10;;
22388;SDS011;11362;48.102;11.620;2024-01-30T13:25:52;6.57;;;5.27;;
22388;SDS011;11362;48.102;11.620;2024-01-30T13:28:17;7.90;;;5.23;;
22388;SDS011;11362;48.102;11.620;2024-01-30T13:30:42;6.83;;;4.97;;
22388;SDS011;11362;48.102;11.620;2024-01-30T13:33:08;8.57;;;5.03;;
22388;SDS011;11362;48.102;11.620;2024-01-30T13:35:33;8.23;;;4.80;;
22388;SDS011;11362;48.102;11.620;2024-01-30T13:37:59;5.87;;;4.40;;
22388;SDS011;11362;48.102;11.620;2024-01-30T13:40:24;5.73;;;4.60;;
22388;SDS011;11362;48.102;11.620;2024-01-30T13:42:50;8.30;;;4.40;;
22388;SDS011;11362;48.102;11.620;2024-01-30T13:45:16;6.30;;;4.03;;
22388;SDS011;11362;48.102;11.620;2024-01-30T13:47:41;5.40;;;4.13;;
22388;SDS011;11362;48.102;11.620;2024-01-30T13:50:06;8.43;;;4.23;;
22388;SDS011;11362;48.102;11.620;2024-01-30T13:52:33;11.27;;;4.27;;
22388;SDS011;11362;48.102;11.620;2024-01-30T13:54:58;9.40;;;4.50;;
22388;SDS011;11362;48.102;11.620;2024-01-30T13:57:24;9.63;;;4.63;;
22388;SDS011;11362;48.102;11.620;2024-01-30T13:59:49;10.30;;;3.87;;
22388;SDS011;11362;48.102;11.620;2024-01-30T14:02:15;8.73;;;3.70;;
22388;SDS011;11362;48.102;11.620;2024-01-30T14:04:40;6.07;;;3.33;;
22388;SDS011;11362;48.102;11.620;2024-01-30T14:07:06;5.90;;;3.10;;
22388;SDS011;11362;48.102;11.620;2024-01-30T14:09:31;8.10;;;3.10;;
22388;SDS011;11362;48.102;11.620;2024-01-30T14:11:57;7.77;;;3.03;;
22388;SDS011;11362;48.102;11.620;2024-01-30T14:14:22;7.37;;;3.50;;
22388;SDS011;11362;48.102;11.620;2024-01-30T14:16:48;6.30;;;3.27;;
22388;SDS011;11362;48.102;11.620;2024-01-30T14:19:13;8.87;;;3.20;;
22388;SDS011;11362;48.102;11.620;2024-01-30T14:21:38;7.50;;;3.07;;
22388;SDS011;11362;48.102;11.620;2024-01-30T14:24:04;5.93;;;2.40;;